Terminal Aerodrome Forecast
Issued by NWS Wilmington, OH

Current Version | Previous Version | Text Only | Print | Product List | Glossary Off
Versions: 1 2 3 4 5 6 7 8 9 10 11 12 13 14 15 16 17 18 19

258
FTUS41 KILN 210542
TAFCMH
TAF
KCMH 210542Z 2106/2206 VRB03KT 4SM BR OVC008
     FM210900 36005KT 2SM BR OVC006
     FM211400 36006KT P6SM OVC012
     FM211600 36006KT P6SM BKN022
     FM211800 34006KT P6SM BKN200
     FM220200 33010G16KT P6SM BKN100=

USA.gov is the U.S. government's official web portal to all federal, state and local government web resources and services.